MOL Supremacy — A8IT6 — position and weather

sailwx.info

Track history (hours):
 
Tides and Currents Weather Stations Pressure Air Temp Water Temp Dewpoint Dewpoint Depression Visibility Wind Speed Wind Dir Waves Ship Positions

MOL Supremacy

Last reported at 2017-Nov-12 01:16 UTC. Time now 2017-Dec-12 04:45 UTC.
Position N 26°27' W 014°52'.
Warning: this ship's position is 30 days out of date.

Length 210 m; beam 30.1 m; draft 11.5 m.

Type: Cargo ship. MMSI: 636026896.

Date/timePositionNaut miles runAvg speedWind from/ knotsBaromVisibWave heightAir tempDewpointWater temp
2017-Nov-12 01:16N 26°27' W 014°52'412.9
2017-Nov-12 00:59N 26°30' W 014°50'613.1
2017-Nov-12 00:30N 26°35' W 014°46'613.0
2017-Nov-12 00:00N 26°41' W 014°42'613.0
2017-Nov-11 23:30N 26°46' W 014°38'713.0
2017-Nov-11 23:00N 26°51' W 014°34'612.9
2017-Nov-11 22:30N 26°57' W 014°30'713.1
2017-Nov-11 22:00N 27°02' W 014°26'713.3
2017-Nov-11 21:30N 27°08' W 014°22'713.6
2017-Nov-11 21:00N 27°14' W 014°18'713.7
2017-Nov-11 20:30N 27°19' W 014°14'713.7
2017-Nov-11 20:00N 27°25' W 014°10'714.0
2017-Nov-11 19:31N 27°31' W 014°05'714.6
2017-Nov-11 19:01N 27°37' W 014°01'714.3
2017-Nov-11 18:30N 27°43' W 013°57'714.0
2017-Nov-11 18:00N 27°49' W 013°53'713.9
2017-Nov-11 17:30N 27°55' W 013°48'714.0
2017-Nov-11 17:00N 28°01' W 013°44'1013.8
2017-Nov-11 16:15N 28°09' W 013°36'313.4
2017-Nov-11 16:00N 28°12' W 013°34'713.3
2017-Nov-11 15:30N 28°17' W 013°30'713.4
2017-Nov-11 15:00N 28°23' W 013°26'713.3
2017-Nov-11 14:30N 28°28' W 013°21'713.4
2017-Nov-11 14:00N 28°34' W 013°17'713.4
2017-Nov-11 13:29N 28°39' W 013°12'713.5
2017-Nov-11 13:00N 28°44' W 013°08'713.4
2017-Nov-11 12:30N 28°50' W 013°04'1113.1
2017-Nov-11 11:40N 28°59' W 012°56'212.7
2017-Nov-11 11:30N 29°01' W 012°55'612.6
2017-Nov-11 11:00N 29°06' W 012°51'612.7
2017-Nov-11 10:30N 29°11' W 012°46'712.8
2017-Nov-11 10:00N 29°16' W 012°42'612.9
2017-Nov-11 09:30N 29°21' W 012°38'815.9
2017-Nov-11 09:00N 29°27' W 012°32'914.3
2017-Nov-11 08:24N 29°35' W 012°26'512.9
2017-Nov-11 08:00N 29°39' W 012°23'613.0
2017-Nov-11 07:30N 29°44' W 012°19'612.1
2017-Nov-11 07:00N 29°49' W 012°15'712.2
2017-Nov-11 06:28N 29°54' W 012°10'612.2
2017-Nov-11 06:00N 29°59' W 012°06'612.0
2017-Nov-11 05:28N 30°04' W 012°02'611.9
2017-Nov-11 04:59N 30°08' W 011°58'612.1
2017-Nov-11 04:30N 30°13' W 011°54'711.9
2017-Nov-11 03:57N 30°19' W 011°50'511.8
2017-Nov-11 03:30N 30°23' W 011°46'1111.8
2017-Nov-11 02:36N 30°32' W 011°39'212.0
2017-Nov-11 02:26N 30°33' W 011°38'512.0
2017-Nov-11 02:00N 30°38' W 011°34'612.2
2017-Nov-11 01:30N 30°43' W 011°30'3012.4
2017-Nov-10 23:04N 31°07' W 011°09'112.6
2017-Nov-10 23:00N 31°07' W 011°09'612.7
2017-Nov-10 22:30N 31°13' W 011°04'712.6
2017-Nov-10 21:57N 31°18' W 010°60'612.7
2017-Nov-10 21:30N 31°23' W 010°56'612.4
2017-Nov-10 21:00N 31°28' W 010°52'612.4
2017-Nov-10 20:30N 31°33' W 010°47'384 8.9
2017-Nov-09 01:15N 36°04' W 005°20'3 9.5
2017-Nov-09 00:56N 36°03' W 005°17'1 1.6
2017-Nov-09 00:15N 36°03' W 005°18'1 1.6
2017-Nov-08 23:48N 36°02' W 005°19'0 0.5
2017-Nov-08 23:30N 36°02' W 005°19'0 0.1
2017-Nov-08 22:59N 36°02' W 005°19'1 1.1
2017-Nov-08 22:28N 36°02' W 005°19'22417.5
2017-Nov-08 09:38N 37°18' W 000°56'319.2
2017-Nov-08 09:28N 37°20' W 000°53'919.0
2017-Nov-08 09:00N 37°26' W 000°45'918.7
2017-Nov-08 08:30N 37°32' W 000°36'918.5
2017-Nov-08 08:00N 37°39' W 000°28'918.4
2017-Nov-08 07:31N 37°46' W 000°21'1018.1
2017-Nov-08 06:57N 37°55' W 000°15'818.1
2017-Nov-08 06:30N 38°02' W 000°09'2617.7
2017-Nov-08 05:01N 38°23' E 000°09'018.4
2017-Nov-08 05:00N 38°24' E 000°10'  
2017-Nov-05 07:00N 40°18' E 000°54'32320.9 320 / 331014.0 5.4 20.013.0
2017-Nov-04 15:30N 43°11' E 006°59'1120.8
2017-Nov-04 14:58N 43°18' E 007°12'1021.0
2017-Nov-04 14:30N 43°23' E 007°23'3921.1
2017-Nov-04 12:40N 43°46' E 008°07'421.3
2017-Nov-04 12:30N 43°48' E 008°11'1021.0
2017-Nov-04 12:00N 43°54' E 008°22'1121.0
2017-Nov-04 11:31N 44°02' E 008°32'1020.9
2017-Nov-04 11:00N 44°09' E 008°42'1020.7
2017-Nov-04 10:30N 44°16' E 008°53'815.1
2017-Nov-04 10:00N 44°23' E 008°56'3 5.3
2017-Nov-04 09:30N 44°24' E 008°53'0 0.0
2017-Nov-04 09:00N 44°24' E 008°53'0 0.0
2017-Nov-04 08:30N 44°24' E 008°53'0 0.0
2017-Nov-04 08:00N 44°24' E 008°53'0 0.0
2017-Nov-04 07:30N 44°24' E 008°53'0 0.0
2017-Nov-04 07:00N 44°24' E 008°53'0 0.0
2017-Nov-04 06:30N 44°24' E 008°53'0 0.0
2017-Nov-04 06:00N 44°24' E 008°53'0 0.0
2017-Nov-04 05:30N 44°24' E 008°53'0 0.0
2017-Nov-04 05:00N 44°24' E 008°53'0 0.0
2017-Nov-04 04:30N 44°24' E 008°53'0 0.0
2017-Nov-04 04:00N 44°24' E 008°53'0 0.0
2017-Nov-04 03:30N 44°24' E 008°53'0 0.0
2017-Nov-04 03:00N 44°24' E 008°53'0 0.0
2017-Nov-04 02:30N 44°24' E 008°53'0 0.0
2017-Nov-04 02:00N 44°24' E 008°53'0 0.0
2017-Nov-04 01:30N 44°24' E 008°53'0 0.0
2017-Nov-04 01:00N 44°24' E 008°53'0 0.0
2017-Nov-04 00:30N 44°24' E 008°53'0 0.0
2017-Nov-04 00:00N 44°24' E 008°53'0 0.0
2017-Nov-03 23:30N 44°24' E 008°53'0 0.0
2017-Nov-03 23:00N 44°24' E 008°53'0 0.0
2017-Nov-03 22:30N 44°24' E 008°53'0 0.0
2017-Nov-03 22:00N 44°24' E 008°53'0 0.0
2017-Nov-03 21:30N 44°24' E 008°53'0 0.0
2017-Nov-03 21:00N 44°24' E 008°53'0 0.0
2017-Nov-03 20:30N 44°24' E 008°53'0 0.0
2017-Nov-03 20:00N 44°24' E 008°53'0 0.0
2017-Nov-03 19:30N 44°24' E 008°53'0 0.0
2017-Nov-03 19:00N 44°24' E 008°53'0 0.0
2017-Nov-03 18:30N 44°24' E 008°53'0 0.0
2017-Nov-03 18:00N 44°24' E 008°53'0 0.0
2017-Nov-03 17:30N 44°24' E 008°53'0 0.0
2017-Nov-03 17:00N 44°24' E 008°53'0 0.0
2017-Nov-03 16:30N 44°24' E 008°53'0 0.0
2017-Nov-03 16:00N 44°24' E 008°53'0 0.0
2017-Nov-03 15:30N 44°24' E 008°53'0 0.0
2017-Nov-03 15:00N 44°24' E 008°53'0 0.0
2017-Nov-03 14:30N 44°24' E 008°53'0 0.0
2017-Nov-03 14:00N 44°24' E 008°53'0 0.0
2017-Nov-03 13:30N 44°24' E 008°53'0 0.0
2017-Nov-03 13:00N 44°24' E 008°53'0 0.0
2017-Nov-03 12:30N 44°24' E 008°53'0 0.0
2017-Nov-03 12:00N 44°24' E 008°53'0 0.0
2017-Nov-03 11:30N 44°24' E 008°53'0 0.0
2017-Nov-03 11:00N 44°24' E 008°53'0 0.0
2017-Nov-03 10:30N 44°24' E 008°53'0 0.0
2017-Nov-03 10:00N 44°24' E 008°53'0 0.0
2017-Nov-03 09:30N 44°24' E 008°53'0 0.0
2017-Nov-03 09:00N 44°24' E 008°53'0 0.0
2017-Nov-03 08:30N 44°24' E 008°53'0 0.0
2017-Nov-03 08:00N 44°24' E 008°53'0 0.0
2017-Nov-03 07:30N 44°24' E 008°53'0 0.0
2017-Nov-03 07:00N 44°24' E 008°53'0 0.0
2017-Nov-03 06:30N 44°24' E 008°53'0 0.0
2017-Nov-03 06:00N 44°24' E 008°53'0 0.0
2017-Nov-03 05:30N 44°24' E 008°53'0 0.0
2017-Nov-03 05:00N 44°24' E 008°53'1 2.0
2017-Nov-03 04:30N 44°24' E 008°54'2 4.8
2017-Nov-03 04:00N 44°23' E 008°57'2 4.4
2017-Nov-03 03:30N 44°21' E 008°59'815.4
2017-Nov-03 03:00N 44°13' E 008°59'510.5
2017-Nov-03 02:30N 44°08' E 008°56'510.8
2017-Nov-03 02:00N 44°05' E 008°50'611.1
2017-Nov-03 01:30N 44°02' E 008°44'510.9
2017-Nov-03 01:00N 43°58' E 008°38'510.9
2017-Nov-03 00:30N 43°55' E 008°32'510.9
2017-Nov-03 00:00N 43°51' E 008°27'510.8
2017-Nov-02 23:30N 43°47' E 008°21'510.8
2017-Nov-02 23:00N 43°44' E 008°16'16 7.2
2017-Nov-02 20:47N 43°34' E 007°58'2 7.3
2017-Nov-02 20:30N 43°33' E 007°56'4 7.3
2017-Nov-02 20:00N 43°31' E 007°51'15 9.1
2017-Nov-02 18:18N 43°22' E 007°34'410.0
2017-Nov-02 17:56N 43°19' E 007°30'410.1
2017-Nov-02 17:30N 43°17' E 007°26'510.1
2017-Nov-02 17:00N 43°14' E 007°20'510.3
2017-Nov-02 16:29N 43°11' E 007°14'511.2
2017-Nov-02 16:00N 43°07' E 007°08'6111.1
2017-Nov-02 10:28N 42°27' E 006°05'712.7
2017-Nov-02 09:54N 42°23' E 005°58'1313.0
2017-Nov-02 08:55N 42°14' E 005°45'512.8
2017-Nov-02 08:30N 42°11' E 005°39'3212.3
2017-Nov-02 05:52N 41°50' E 005°06'  
Track history (hours):
 
Tides and Currents Weather Stations Pressure Air Temp Water Temp Dewpoint Dewpoint Depression Visibility Wind Speed Wind Dir Waves Ship Positions

MOL Supremacy

Last reported at 2017-Nov-12 01:16 UTC. Time now 2017-Dec-12 04:45 UTC.
Position N 26°27' W 014°52'.
Warning: this ship's position is 30 days out of date.

Length 210 m; beam 30.1 m; draft 11.5 m.

Type: Cargo ship. MMSI: 636026896.

Date/timePositionNaut miles runAvg speedWind from/ knotsBaromVisibWave heightAir tempDewpointWater temp
2017-Nov-12 01:16N 26°27' W 014°52'412.9
2017-Nov-12 00:59N 26°30' W 014°50'613.1
2017-Nov-12 00:30N 26°35' W 014°46'613.0
2017-Nov-12 00:00N 26°41' W 014°42'613.0
2017-Nov-11 23:30N 26°46' W 014°38'713.0
2017-Nov-11 23:00N 26°51' W 014°34'612.9
2017-Nov-11 22:30N 26°57' W 014°30'713.1
2017-Nov-11 22:00N 27°02' W 014°26'713.3
2017-Nov-11 21:30N 27°08' W 014°22'713.6
2017-Nov-11 21:00N 27°14' W 014°18'713.7
2017-Nov-11 20:30N 27°19' W 014°14'713.7
2017-Nov-11 20:00N 27°25' W 014°10'714.0
2017-Nov-11 19:31N 27°31' W 014°05'714.6
2017-Nov-11 19:01N 27°37' W 014°01'714.3
2017-Nov-11 18:30N 27°43' W 013°57'714.0
2017-Nov-11 18:00N 27°49' W 013°53'713.9
2017-Nov-11 17:30N 27°55' W 013°48'714.0
2017-Nov-11 17:00N 28°01' W 013°44'1013.8
2017-Nov-11 16:15N 28°09' W 013°36'313.4
2017-Nov-11 16:00N 28°12' W 013°34'713.3
2017-Nov-11 15:30N 28°17' W 013°30'713.4
2017-Nov-11 15:00N 28°23' W 013°26'713.3
2017-Nov-11 14:30N 28°28' W 013°21'713.4
2017-Nov-11 14:00N 28°34' W 013°17'713.4
2017-Nov-11 13:29N 28°39' W 013°12'713.5
2017-Nov-11 13:00N 28°44' W 013°08'713.4
2017-Nov-11 12:30N 28°50' W 013°04'1113.1
2017-Nov-11 11:40N 28°59' W 012°56'212.7
2017-Nov-11 11:30N 29°01' W 012°55'612.6
2017-Nov-11 11:00N 29°06' W 012°51'612.7
2017-Nov-11 10:30N 29°11' W 012°46'712.8
2017-Nov-11 10:00N 29°16' W 012°42'612.9
2017-Nov-11 09:30N 29°21' W 012°38'815.9
2017-Nov-11 09:00N 29°27' W 012°32'914.3
2017-Nov-11 08:24N 29°35' W 012°26'512.9
2017-Nov-11 08:00N 29°39' W 012°23'613.0
2017-Nov-11 07:30N 29°44' W 012°19'612.1
2017-Nov-11 07:00N 29°49' W 012°15'712.2
2017-Nov-11 06:28N 29°54' W 012°10'612.2
2017-Nov-11 06:00N 29°59' W 012°06'612.0
2017-Nov-11 05:28N 30°04' W 012°02'611.9
2017-Nov-11 04:59N 30°08' W 011°58'612.1
2017-Nov-11 04:30N 30°13' W 011°54'711.9
2017-Nov-11 03:57N 30°19' W 011°50'511.8
2017-Nov-11 03:30N 30°23' W 011°46'1111.8
2017-Nov-11 02:36N 30°32' W 011°39'212.0
2017-Nov-11 02:26N 30°33' W 011°38'512.0
2017-Nov-11 02:00N 30°38' W 011°34'612.2
2017-Nov-11 01:30N 30°43' W 011°30'3012.4
2017-Nov-10 23:04N 31°07' W 011°09'112.6
2017-Nov-10 23:00N 31°07' W 011°09'612.7
2017-Nov-10 22:30N 31°13' W 011°04'712.6
2017-Nov-10 21:57N 31°18' W 010°60'612.7
2017-Nov-10 21:30N 31°23' W 010°56'612.4
2017-Nov-10 21:00N 31°28' W 010°52'612.4
2017-Nov-10 20:30N 31°33' W 010°47'384 8.9
2017-Nov-09 01:15N 36°04' W 005°20'3 9.5
2017-Nov-09 00:56N 36°03' W 005°17'1 1.6
2017-Nov-09 00:15N 36°03' W 005°18'1 1.6
2017-Nov-08 23:48N 36°02' W 005°19'0 0.5
2017-Nov-08 23:30N 36°02' W 005°19'0 0.1
2017-Nov-08 22:59N 36°02' W 005°19'1 1.1
2017-Nov-08 22:28N 36°02' W 005°19'22417.5
2017-Nov-08 09:38N 37°18' W 000°56'319.2
2017-Nov-08 09:28N 37°20' W 000°53'919.0
2017-Nov-08 09:00N 37°26' W 000°45'918.7
2017-Nov-08 08:30N 37°32' W 000°36'918.5
2017-Nov-08 08:00N 37°39' W 000°28'918.4
2017-Nov-08 07:31N 37°46' W 000°21'1018.1
2017-Nov-08 06:57N 37°55' W 000°15'818.1
2017-Nov-08 06:30N 38°02' W 000°09'2617.7
2017-Nov-08 05:01N 38°23' E 000°09'018.4
2017-Nov-08 05:00N 38°24' E 000°10'  
2017-Nov-05 07:00N 40°18' E 000°54'32320.9 320 / 331014.0 5.4 20.013.0
2017-Nov-04 15:30N 43°11' E 006°59'1120.8
2017-Nov-04 14:58N 43°18' E 007°12'1021.0
2017-Nov-04 14:30N 43°23' E 007°23'3921.1
2017-Nov-04 12:40N 43°46' E 008°07'421.3
2017-Nov-04 12:30N 43°48' E 008°11'1021.0
2017-Nov-04 12:00N 43°54' E 008°22'1121.0
2017-Nov-04 11:31N 44°02' E 008°32'1020.9
2017-Nov-04 11:00N 44°09' E 008°42'1020.7
2017-Nov-04 10:30N 44°16' E 008°53'815.1
2017-Nov-04 10:00N 44°23' E 008°56'3 5.3
2017-Nov-04 09:30N 44°24' E 008°53'0 0.0
2017-Nov-04 09:00N 44°24' E 008°53'0 0.0
2017-Nov-04 08:30N 44°24' E 008°53'0 0.0
2017-Nov-04 08:00N 44°24' E 008°53'0 0.0
2017-Nov-04 07:30N 44°24' E 008°53'0 0.0
2017-Nov-04 07:00N 44°24' E 008°53'0 0.0
2017-Nov-04 06:30N 44°24' E 008°53'0 0.0
2017-Nov-04 06:00N 44°24' E 008°53'0 0.0
2017-Nov-04 05:30N 44°24' E 008°53'0 0.0
2017-Nov-04 05:00N 44°24' E 008°53'0 0.0
2017-Nov-04 04:30N 44°24' E 008°53'0 0.0
2017-Nov-04 04:00N 44°24' E 008°53'0 0.0
2017-Nov-04 03:30N 44°24' E 008°53'0 0.0
2017-Nov-04 03:00N 44°24' E 008°53'0 0.0
2017-Nov-04 02:30N 44°24' E 008°53'0 0.0
2017-Nov-04 02:00N 44°24' E 008°53'0 0.0
2017-Nov-04 01:30N 44°24' E 008°53'0 0.0
2017-Nov-04 01:00N 44°24' E 008°53'0 0.0
2017-Nov-04 00:30N 44°24' E 008°53'0 0.0
2017-Nov-04 00:00N 44°24' E 008°53'0 0.0
2017-Nov-03 23:30N 44°24' E 008°53'0 0.0
2017-Nov-03 23:00N 44°24' E 008°53'0 0.0
2017-Nov-03 22:30N 44°24' E 008°53'0 0.0
2017-Nov-03 22:00N 44°24' E 008°53'0 0.0
2017-Nov-03 21:30N 44°24' E 008°53'0 0.0
2017-Nov-03 21:00N 44°24' E 008°53'0 0.0
2017-Nov-03 20:30N 44°24' E 008°53'0 0.0
2017-Nov-03 20:00N 44°24' E 008°53'0 0.0
2017-Nov-03 19:30N 44°24' E 008°53'0 0.0
2017-Nov-03 19:00N 44°24' E 008°53'0 0.0
2017-Nov-03 18:30N 44°24' E 008°53'0 0.0
2017-Nov-03 18:00N 44°24' E 008°53'0 0.0
2017-Nov-03 17:30N 44°24' E 008°53'0 0.0
2017-Nov-03 17:00N 44°24' E 008°53'0 0.0
2017-Nov-03 16:30N 44°24' E 008°53'0 0.0
2017-Nov-03 16:00N 44°24' E 008°53'0 0.0
2017-Nov-03 15:30N 44°24' E 008°53'0 0.0
2017-Nov-03 15:00N 44°24' E 008°53'0 0.0
2017-Nov-03 14:30N 44°24' E 008°53'0 0.0
2017-Nov-03 14:00N 44°24' E 008°53'0 0.0
2017-Nov-03 13:30N 44°24' E 008°53'0 0.0
2017-Nov-03 13:00N 44°24' E 008°53'0 0.0
2017-Nov-03 12:30N 44°24' E 008°53'0 0.0
2017-Nov-03 12:00N 44°24' E 008°53'0 0.0
2017-Nov-03 11:30N 44°24' E 008°53'0 0.0
2017-Nov-03 11:00N 44°24' E 008°53'0 0.0
2017-Nov-03 10:30N 44°24' E 008°53'0 0.0
2017-Nov-03 10:00N 44°24' E 008°53'0 0.0
2017-Nov-03 09:30N 44°24' E 008°53'0 0.0
2017-Nov-03 09:00N 44°24' E 008°53'0 0.0
2017-Nov-03 08:30N 44°24' E 008°53'0 0.0
2017-Nov-03 08:00N 44°24' E 008°53'0 0.0
2017-Nov-03 07:30N 44°24' E 008°53'0 0.0
2017-Nov-03 07:00N 44°24' E 008°53'0 0.0
2017-Nov-03 06:30N 44°24' E 008°53'0 0.0
2017-Nov-03 06:00N 44°24' E 008°53'0 0.0
2017-Nov-03 05:30N 44°24' E 008°53'0 0.0
2017-Nov-03 05:00N 44°24' E 008°53'1 2.0
2017-Nov-03 04:30N 44°24' E 008°54'2 4.8
2017-Nov-03 04:00N 44°23' E 008°57'2 4.4
2017-Nov-03 03:30N 44°21' E 008°59'815.4
2017-Nov-03 03:00N 44°13' E 008°59'510.5
2017-Nov-03 02:30N 44°08' E 008°56'510.8
2017-Nov-03 02:00N 44°05' E 008°50'611.1
2017-Nov-03 01:30N 44°02' E 008°44'510.9
2017-Nov-03 01:00N 43°58' E 008°38'510.9
2017-Nov-03 00:30N 43°55' E 008°32'510.9
2017-Nov-03 00:00N 43°51' E 008°27'510.8
2017-Nov-02 23:30N 43°47' E 008°21'510.8
2017-Nov-02 23:00N 43°44' E 008°16'16 7.2
2017-Nov-02 20:47N 43°34' E 007°58'2 7.3
2017-Nov-02 20:30N 43°33' E 007°56'4 7.3
2017-Nov-02 20:00N 43°31' E 007°51'15 9.1
2017-Nov-02 18:18N 43°22' E 007°34'410.0
2017-Nov-02 17:56N 43°19' E 007°30'410.1
2017-Nov-02 17:30N 43°17' E 007°26'510.1
2017-Nov-02 17:00N 43°14' E 007°20'510.3
2017-Nov-02 16:29N 43°11' E 007°14'511.2
2017-Nov-02 16:00N 43°07' E 007°08'6111.1
2017-Nov-02 10:28N 42°27' E 006°05'712.7
2017-Nov-02 09:54N 42°23' E 005°58'1313.0
2017-Nov-02 08:55N 42°14' E 005°45'512.8
2017-Nov-02 08:30N 42°11' E 005°39'3212.3
2017-Nov-02 05:52N 41°50' E 005°06'  

Dump ship's entire track history